Time,TemperatureF,DewpointF,PressureIn,WindDirection,WindDirectionDegrees,WindSpeedMPH,WindSpeedGustMPH,Humidity,HourlyPrecipIn,Conditions,Clouds,dailyrainin,SoftwareType,DateUTC
2013-05-23 00:00:00,53.9,48.5,29.90,NW,321,0.0,0.0,82,0.00,OVC,OVC,0.00,WeatherDisplay:10.37,2013-05-23 05:00:00,
2013-05-23 00:05:00,53.9,48.5,29.90,West,259,3.5,3.5,82,0.00,OVC,OVC,0.00,WeatherDisplay:10.37,2013-05-23 05:05:00,
2013-05-23 00:10:00,53.9,48.5,29.90,WNW,282,1.2,0.0,82,0.00,OVC,OVC,0.00,WeatherDisplay:10.37,2013-05-23 05:10:00,
2013-05-23 00:15:00,53.9,48.5,29.90,West,280,2.3,2.3,82,0.00,OVC,OVC,0.00,WeatherDisplay:10.37,2013-05-23 05:15:00,
2013-05-23 00:20:00,53.9,48.5,29.90,WNW,284,4.6,4.6,82,0.00,OVC,OVC,0.00,WeatherDisplay:10.37,2013-05-23 05:20:00,
2013-05-23 00:25:00,53.8,48.4,29.90,NW,314,2.3,2.3,82,0.00,OVC,OVC,0.00,WeatherDisplay:10.37,2013-05-23 05:25:00,
2013-05-23 00:30:00,53.9,48.5,29.90,NNW,328,6.9,6.9,82,0.00,OVC,OVC,0.00,WeatherDisplay:10.37,2013-05-23 05:30:00,
2013-05-23 00:35:00,53.9,48.5,29.91,WNW,297,3.5,3.5,82,0.00,OVC,OVC,0.00,WeatherDisplay:10.37,2013-05-23 05:35:00,
2013-05-23 00:41:00,53.9,48.5,29.91,West,277,3.5,3.5,82,0.00,OVC,OVC,0.00,WeatherDisplay:10.37,2013-05-23 05:41:00,
2013-05-23 00:46:00,53.8,48.4,29.91,NNE,22,3.5,3.5,82,0.00,OVC,OVC,0.00,WeatherDisplay:10.37,2013-05-23 05:46:00,
2013-05-23 00:51:00,53.8,48.4,29.91,WNW,286,6.0,6.0,82,0.00,OVC,OVC,0.00,WeatherDisplay:10.37,2013-05-23 05:51:00,
2013-05-23 00:56:00,53.7,48.3,29.91,WNW,288,2.3,2.3,82,0.00,OVC,OVC,0.00,WeatherDisplay:10.37,2013-05-23 05:56:00,
2013-05-23 01:01:00,53.7,48.3,29.92,WNW,283,1.0,1.0,82,0.00,OVC,OVC,0.00,WeatherDisplay:10.37,2013-05-23 06:01:00,
2013-05-23 01:07:00,53.7,48.3,29.92,NNW,338,1.2,0.0,82,0.00,OVC,OVC,0.00,WeatherDisplay:10.37,2013-05-23 06:07:00,
2013-05-23 01:12:00,53.7,48.7,29.92,NNW,330,3.5,3.5,83,0.00,OVC,OVC,0.00,WeatherDisplay:10.37,2013-05-23 06:12:00,
2013-05-23 01:17:00,53.6,48.6,29.92,NNE,15,5.0,5.0,83,0.00,OVC,OVC,0.00,WeatherDisplay:10.37,2013-05-23 06:17:00,
2013-05-23 01:22:00,53.6,48.6,29.92,North,355,3.5,0.0,83,0.00,OVC,OVC,0.00,WeatherDisplay:10.37,2013-05-23 06:22:00,
2013-05-23 01:27:00,53.6,48.6,29.92,NW,323,2.3,2.3,83,0.00,OVC,OVC,0.00,WeatherDisplay:10.37,2013-05-23 06:27:00,
2013-05-23 01:32:00,53.6,48.2,29.92,NW,319,2.0,2.0,82,0.00,OVC,OVC,0.00,WeatherDisplay:10.37,2013-05-23 06:32:00,
2013-05-23 01:38:00,53.6,48.2,29.92,NW,313,0.0,0.0,82,0.00,OVC,OVC,0.00,WeatherDisplay:10.37,2013-05-23 06:38:00,
2013-05-23 01:43:00,53.7,48.3,29.92,NW,309,4.6,4.6,82,0.00,OVC,OVC,0.00,WeatherDisplay:10.37,2013-05-23 06:43:00,
2013-05-23 01:48:00,53.7,48.3,29.92,WNW,291,3.0,3.0,82,0.00,OVC,OVC,0.00,WeatherDisplay:10.37,2013-05-23 06:48:00,
2013-05-23 01:53:00,53.8,48.1,29.92,WSW,252,3.5,3.5,81,0.00,OVC,OVC,0.00,WeatherDisplay:10.37,2013-05-23 06:53:00,
2013-05-23 01:59:00,53.8,48.1,29.92,NNE,16,2.3,2.3,81,0.00,OVC,OVC,0.00,WeatherDisplay:10.37,2013-05-23 06:59:00,
2013-05-23 02:04:00,53.8,48.1,29.93,NNW,339,5.8,5.8,81,0.00,OVC,OVC,0.00,WeatherDisplay:10.37,2013-05-23 07:04:00,
2013-05-23 02:09:00,53.8,47.8,29.93,NNW,346,5.8,5.8,80,0.00,OVC,OVC,0.00,WeatherDisplay:10.37,2013-05-23 07:09:00,
2013-05-23 02:14:00,53.8,47.8,29.93,North,355,5.8,5.8,80,0.00,OVC,OVC,0.00,WeatherDisplay:10.37,2013-05-23 07:14:00,
2013-05-23 02:19:00,53.8,47.8,29.93,NNE,17,3.5,3.5,80,0.00,OVC,OVC,0.00,WeatherDisplay:10.37,2013-05-23 07:19:00,
2013-05-23 02:25:00,53.7,47.7,29.93,NE,34,5.8,5.8,80,0.00,OVC,OVC,0.00,WeatherDisplay:10.37,2013-05-23 07:25:00,
2013-05-23 02:30:00,53.7,47.7,29.93,WNW,292,5.8,5.8,80,0.00,OVC,OVC,0.00,WeatherDisplay:10.37,2013-05-23 07:30:00,
2013-05-23 02:35:00,53.7,47.7,29.94,North,355,2.3,2.3,80,0.00,OVC,OVC,0.00,WeatherDisplay:10.37,2013-05-23 07:35:00,
2013-05-23 02:40:00,53.6,47.2,29.94,NE,48,5.8,5.8,79,0.00,OVC,OVC,0.00,WeatherDisplay:10.37,2013-05-23 07:40:00,
2013-05-23 02:45:00,53.6,47.2,29.94,WNW,286,5.0,5.0,79,0.00,OVC,OVC,0.00,WeatherDisplay:10.37,2013-05-23 07:45:00,
2013-05-23 02:51:00,53.6,47.2,29.94,NNE,15,5.0,5.0,79,0.00,OVC,OVC,0.00,WeatherDisplay:10.37,2013-05-23 07:51:00,
2013-05-23 02:57:00,53.6,47.2,29.94,NNW,327,4.6,4.6,79,0.00,OVC,OVC,0.00,WeatherDisplay:10.37,2013-05-23 07:57:00,
2013-05-23 03:02:00,53.6,47.2,29.94,NNE,28,3.5,3.5,79,0.00,OVC,OVC,0.00,WeatherDisplay:10.37,2013-05-23 08:02:00,
2013-05-23 03:08:00,53.6,47.2,29.95,NW,323,3.5,3.5,79,0.00,OVC,OVC,0.00,WeatherDisplay:10.37,2013-05-23 08:08:00,
2013-05-23 03:13:00,53.6,47.6,29.95,NE,34,2.3,2.3,80,0.00,OVC,OVC,0.00,WeatherDisplay:10.37,2013-05-23 08:13:00,
2013-05-23 03:18:00,53.4,47.4,29.95,West,281,5.8,5.8,80,0.00,OVC,OVC,0.00,WeatherDisplay:10.37,2013-05-23 08:18:00,
2013-05-23 03:23:00,53.2,47.5,29.95,NNW,331,3.5,3.5,81,0.00,OVC,OVC,0.00,WeatherDisplay:10.37,2013-05-23 08:23:00,
2013-05-23 03:28:00,53.0,47.3,29.95,West,274,3.5,3.5,81,0.00,OVC,OVC,0.00,WeatherDisplay:10.37,2013-05-23 08:28:00,
2013-05-23 03:33:00,52.8,47.5,29.95,NW,313,5.8,5.8,82,0.00,OVC,OVC,0.00,WeatherDisplay:10.37,2013-05-23 08:33:00,
2013-05-23 03:38:00,52.6,47.3,29.96,NW,309,3.5,3.5,82,0.00,OVC,OVC,0.00,WeatherDisplay:10.37,2013-05-23 08:38:00,
2013-05-23 03:43:00,52.5,47.2,29.96,NW,313,2.3,2.3,82,0.00,OVC,OVC,0.00,WeatherDisplay:10.37,2013-05-23 08:43:00,
2013-05-23 03:48:00,52.4,47.1,29.96,WNW,292,3.5,3.5,82,0.00,OVC,OVC,0.00,WeatherDisplay:10.37,2013-05-23 08:48:00,
2013-05-23 03:54:00,52.4,47.1,29.96,NNW,342,1.2,1.2,82,0.00,OVC,OVC,0.00,WeatherDisplay:10.37,2013-05-23 08:54:00,
2013-05-23 03:59:00,52.4,47.4,29.97,NNW,342,1.2,1.2,83,0.00,OVC,OVC,0.00,WeatherDisplay:10.37,2013-05-23 08:59:00,
2013-05-23 04:04:00,52.4,47.4,29.97,NNW,346,4.6,4.6,83,0.00,OVC,OVC,0.00,WeatherDisplay:10.37,2013-05-23 09:04:00,
2013-05-23 04:09:00,52.4,47.4,29.97,NW,308,11.5,11.5,83,0.00,OVC,OVC,0.00,WeatherDisplay:10.37,2013-05-23 09:09:00,
2013-05-23 04:14:00,52.4,47.4,29.98,NNW,331,3.5,3.5,83,0.00,OVC,OVC,0.00,WeatherDisplay:10.37,2013-05-23 09:14:00,
2013-05-23 04:20:00,52.4,47.4,29.98,NNE,19,4.6,4.6,83,0.00,OVC,OVC,0.00,WeatherDisplay:10.37,2013-05-23 09:20:00,
2013-05-23 04:25:00,52.4,47.4,29.98,NNE,16,4.6,4.6,83,0.00,OVC,OVC,0.00,WeatherDisplay:10.37,2013-05-23 09:25:00,
2013-05-23 04:30:00,52.5,47.5,29.98,NNE,12,5.8,5.8,83,0.00,OVC,OVC,0.00,WeatherDisplay:10.37,2013-05-23 09:30:00,
2013-05-23 04:35:00,52.5,47.2,29.98,NNW,348,3.5,3.5,82,0.00,OVC,OVC,0.00,WeatherDisplay:10.37,2013-05-23 09:35:00,
2013-05-23 04:41:00,52.5,47.2,29.99,NE,37,6.9,6.9,82,0.00,OVC,OVC,0.00,WeatherDisplay:10.37,2013-05-23 09:41:00,
2013-05-23 04:46:00,52.5,47.2,29.99,WNW,294,6.9,6.9,82,0.00,OVC,OVC,0.00,WeatherDisplay:10.37,2013-05-23 09:46:00,
2013-05-23 04:51:00,52.6,47.3,29.99,NW,316,9.2,9.2,82,0.00,OVC,OVC,0.00,WeatherDisplay:10.37,2013-05-23 09:51:00,
2013-05-23 04:56:00,52.7,47.4,29.99,North,355,3.5,3.5,82,0.00,OVC,OVC,0.00,WeatherDisplay:10.37,2013-05-23 09:56:00,
2013-05-23 05:01:00,52.7,47.4,29.99,NW,304,3.5,3.5,82,0.00,OVC,OVC,0.00,WeatherDisplay:10.37,2013-05-23 10:01:00,
2013-05-23 05:06:00,52.7,47.4,30.00,NNW,330,3.5,3.5,82,0.00,OVC,OVC,0.00,WeatherDisplay:10.37,2013-05-23 10:06:00,
2013-05-23 05:12:00,52.7,47.4,30.00,NW,321,3.5,3.5,82,0.00,OVC,OVC,0.00,WeatherDisplay:10.37,2013-05-23 10:12:00,
2013-05-23 05:17:00,52.8,47.5,30.00,NW,319,5.8,5.8,82,0.00,OVC,OVC,0.00,WeatherDisplay:10.37,2013-05-23 10:17:00,
2013-05-23 05:22:00,52.8,47.1,30.01,NE,47,3.5,3.5,81,0.00,OVC,OVC,0.00,WeatherDisplay:10.37,2013-05-23 10:22:00,
2013-05-23 05:27:00,52.9,47.2,30.01,North,5,5.8,5.8,81,0.00,OVC,OVC,0.00,WeatherDisplay:10.37,2013-05-23 10:27:00,
2013-05-23 05:32:00,52.9,47.2,30.01,WNW,300,3.5,3.5,81,0.00,OVC,OVC,0.00,WeatherDisplay:10.37,2013-05-23 10:32:00,
2013-05-23 05:37:00,53.0,47.3,30.02,NW,304,3.5,3.5,81,0.00,CLR,CLR,0.00,WeatherDisplay:10.37,2013-05-23 10:37:00,
2013-05-23 05:43:00,53.0,47.3,30.02,NNE,25,3.5,3.5,81,0.00,CLR,CLR,0.00,WeatherDisplay:10.37,2013-05-23 10:43:00,
2013-05-23 05:48:00,53.1,47.4,30.02,NNE,28,4.6,4.6,81,0.00,CLR,CLR,0.00,WeatherDisplay:10.37,2013-05-23 10:48:00,
2013-05-23 05:53:00,53.1,47.4,30.03,NW,306,4.0,4.0,81,0.00,CLR,CLR,0.00,WeatherDisplay:10.37,2013-05-23 10:53:00,
2013-05-23 05:58:00,53.2,47.5,30.03,North,349,3.5,3.5,81,0.00,CLR,CLR,0.00,WeatherDisplay:10.37,2013-05-23 10:58:00,
2013-05-23 06:04:00,53.2,47.2,30.03,NNW,338,6.9,6.9,80,0.00,CLR,CLR,0.00,WeatherDisplay:10.37,2013-05-23 11:04:00,
2013-05-23 06:09:00,53.3,47.3,30.04,North,355,6.0,6.0,80,0.00,CLR,CLR,0.00,WeatherDisplay:10.37,2013-05-23 11:09:00,
2013-05-23 06:14:00,53.3,47.3,30.04,North,10,1.2,0.0,80,0.00,CLR,CLR,0.00,WeatherDisplay:10.37,2013-05-23 11:14:00,
2013-05-23 06:20:00,53.3,47.3,30.04,WNW,302,2.0,2.0,80,0.00,CLR,CLR,0.00,WeatherDisplay:10.37,2013-05-23 11:20:00,
2013-05-23 06:25:00,53.4,47.4,30.05,NNW,348,6.9,6.9,80,0.00,CLR,CLR,0.00,WeatherDisplay:10.37,2013-05-23 11:25:00,
2013-05-23 06:30:00,53.5,47.5,30.05,NNW,344,10.4,10.4,80,0.00,CLR,CLR,0.00,WeatherDisplay:10.37,2013-05-23 11:30:00,
2013-05-23 06:35:00,53.5,47.5,30.05,NNE,16,5.8,5.8,80,0.00,CLR,CLR,0.00,WeatherDisplay:10.37,2013-05-23 11:35:00,
2013-05-23 06:41:00,53.6,47.6,30.05,NNE,25,2.3,2.3,80,0.00,CLR,CLR,0.00,WeatherDisplay:10.37,2013-05-23 11:41:00,
2013-05-23 06:46:00,53.6,47.6,30.05,WNW,300,6.9,6.9,80,0.00,CLR,CLR,0.00,WeatherDisplay:10.37,2013-05-23 11:46:00,
2013-05-23 06:51:00,53.7,47.7,30.06,NNE,13,0.0,0.0,80,0.00,CLR,CLR,0.00,WeatherDisplay:10.37,2013-05-23 11:51:00,
2013-05-23 06:56:00,53.7,47.7,30.06,NNE,15,7.0,7.0,80,0.00,CLR,CLR,0.00,WeatherDisplay:10.37,2013-05-23 11:56:00,
2013-05-23 07:01:00,53.8,47.8,30.06,North,5,6.0,6.0,80,0.00,CLR,CLR,0.00,WeatherDisplay:10.37,2013-05-23 12:01:00,
2013-05-23 07:06:00,53.9,47.9,30.06,NW,307,5.8,5.8,80,0.00,CLR,CLR,0.00,WeatherDisplay:10.37,2013-05-23 12:06:00,
2013-05-23 07:11:00,54.0,48.0,30.07,North,5,4.6,4.6,80,0.00,CLR,CLR,0.00,WeatherDisplay:10.37,2013-05-23 12:11:00,
2013-05-23 07:17:00,54.2,47.8,30.07,WNW,302,3.5,3.5,79,0.00,CLR,CLR,0.00,WeatherDisplay:10.37,2013-05-23 12:17:00,
2013-05-23 07:22:00,54.2,47.8,30.08,North,360,11.5,11.5,79,0.00,CLR,CLR,0.00,WeatherDisplay:10.37,2013-05-23 12:22:00,
2013-05-23 07:27:00,54.4,48.0,30.08,NW,322,4.6,4.6,79,0.00,CLR,CLR,0.00,WeatherDisplay:10.37,2013-05-23 12:27:00,
2013-05-23 07:32:00,54.5,47.8,30.08,NNW,339,4.6,4.6,78,0.00,CLR,CLR,0.00,WeatherDisplay:10.37,2013-05-23 12:32:00,
2013-05-23 07:37:00,54.6,47.9,30.09,NNE,18,6.9,6.9,78,0.00,CLR,CLR,0.00,WeatherDisplay:10.37,2013-05-23 12:37:00,
2013-05-23 07:43:00,54.7,47.6,30.09,North,5,6.9,6.9,77,0.00,CLR,CLR,0.00,WeatherDisplay:10.37,2013-05-23 12:43:00,
2013-05-23 07:48:00,54.9,47.8,30.10,North,360,5.8,5.8,77,0.00,CLR,CLR,0.00,WeatherDisplay:10.37,2013-05-23 12:48:00,
2013-05-23 07:53:00,55.0,47.9,30.10,NNE,29,6.9,6.9,77,0.00,CLR,CLR,0.00,WeatherDisplay:10.37,2013-05-23 12:53:00,
2013-05-23 07:58:00,55.1,47.7,30.10,NNE,26,5.8,5.8,76,0.00,CLR,CLR,0.00,WeatherDisplay:10.37,2013-05-23 12:58:00,
2013-05-23 08:03:00,55.2,47.8,30.10,NE,56,4.6,4.6,76,0.00,CLR,CLR,0.00,WeatherDisplay:10.37,2013-05-23 13:03:00,
2013-05-23 08:09:00,55.3,47.9,30.11,NNE,13,6.9,6.9,76,0.00,CLR,CLR,0.00,WeatherDisplay:10.37,2013-05-23 13:09:00,
2013-05-23 08:14:00,55.4,48.0,30.11,NE,37,5.8,5.8,76,0.00,CLR,CLR,0.00,WeatherDisplay:10.37,2013-05-23 13:14:00,
2013-05-23 08:19:00,55.4,47.6,30.11,NNE,32,3.5,3.5,75,0.00,CLR,CLR,0.00,WeatherDisplay:10.37,2013-05-23 13:19:00,
2013-05-23 08:24:00,55.4,47.6,30.11,North,10,4.0,4.0,75,0.00,CLR,CLR,0.00,WeatherDisplay:10.37,2013-05-23 13:24:00,
2013-05-23 08:29:00,55.4,47.6,30.12,NNE,21,5.8,5.8,75,0.00,CLR,CLR,0.00,WeatherDisplay:10.37,2013-05-23 13:29:00,
2013-05-23 08:35:00,55.5,47.7,30.12,NE,38,9.2,9.2,75,0.00,CLR,CLR,0.00,WeatherDisplay:10.37,2013-05-23 13:35:00,
2013-05-23 08:40:00,55.7,47.5,30.12,NNW,335,5.8,5.8,74,0.00,CLR,CLR,0.00,WeatherDisplay:10.37,2013-05-23 13:40:00,
2013-05-23 08:45:00,55.8,47.3,30.12,North,351,11.5,11.5,73,0.00,CLR,CLR,0.00,WeatherDisplay:10.37,2013-05-23 13:45:00,
2013-05-23 08:50:00,55.9,47.4,30.12,West,273,4.6,4.6,73,0.00,CLR,CLR,0.00,WeatherDisplay:10.37,2013-05-23 13:50:00,
2013-05-23 08:56:00,56.0,47.1,30.13,NNE,29,4.6,4.6,72,0.00,CLR,CLR,0.00,WeatherDisplay:10.37,2013-05-23 13:56:00,
2013-05-23 09:01:00,56.2,46.9,30.13,North,9,9.2,9.2,71,0.00,CLR,CLR,0.00,WeatherDisplay:10.37,2013-05-23 14:01:00,
2013-05-23 09:06:00,56.2,46.9,30.13,NNE,12,3.5,3.5,71,0.00,CLR,CLR,0.00,WeatherDisplay:10.37,2013-05-23 14:06:00,
2013-05-23 09:11:00,56.4,46.7,30.13,NE,35,11.5,11.5,70,0.00,CLR,CLR,0.00,WeatherDisplay:10.37,2013-05-23 14:11:00,
2013-05-23 09:16:00,56.6,46.9,30.13,NNE,30,3.5,3.5,70,0.00,CLR,CLR,0.00,WeatherDisplay:10.37,2013-05-23 14:16:00,
2013-05-23 09:21:00,56.8,46.7,30.13,ENE,74,8.1,8.1,69,0.00,CLR,CLR,0.00,WeatherDisplay:10.37,2013-05-23 14:21:00,
2013-05-23 09:26:00,57.0,46.9,30.13,NNW,339,11.5,11.5,69,0.00,CLR,CLR,0.00,WeatherDisplay:10.37,2013-05-23 14:26:00,
2013-05-23 09:32:00,57.3,46.8,30.13,North,350,11.5,11.5,68,0.00,CLR,CLR,0.00,WeatherDisplay:10.37,2013-05-23 14:32:00,
2013-05-23 09:37:00,57.6,47.1,30.14,NE,45,5.0,5.0,68,0.00,CLR,CLR,0.00,WeatherDisplay:10.37,2013-05-23 14:37:00,
2013-05-23 09:42:00,57.7,47.2,30.14,NNE,33,5.8,5.8,68,0.00,CLR,CLR,0.00,WeatherDisplay:10.37,2013-05-23 14:42:00,
2013-05-23 09:47:00,58.1,47.6,30.14,NNE,30,5.0,5.0,68,0.00,CLR,CLR,0.00,WeatherDisplay:10.37,2013-05-23 14:47:00,
2013-05-23 09:53:00,58.4,47.1,30.14,NE,55,6.9,6.9,66,0.00,CLR,CLR,0.00,WeatherDisplay:10.37,2013-05-23 14:53:00,
2013-05-23 09:58:00,58.5,47.2,30.14,NNE,32,5.8,5.8,66,0.00,CLR,CLR,0.00,WeatherDisplay:10.37,2013-05-23 14:58:00,
2013-05-23 10:03:00,58.6,47.3,30.15,NE,34,6.9,6.9,66,0.00,CLR,CLR,0.00,WeatherDisplay:10.37,2013-05-23 15:03:00,
2013-05-23 10:08:00,59.0,47.2,30.15,North,360,5.8,5.8,65,0.00,CLR,CLR,0.00,WeatherDisplay:10.37,2013-05-23 15:08:00,
2013-05-23 10:13:00,59.0,46.8,30.15,NNE,23,4.0,4.0,64,0.00,CLR,CLR,0.00,WeatherDisplay:10.37,2013-05-23 15:13:00,
2013-05-23 10:19:00,59.9,47.7,30.15,NNW,332,3.5,3.5,64,0.00,CLR,CLR,0.00,WeatherDisplay:10.37,2013-05-23 15:19:00,
2013-05-23 10:24:00,60.4,47.3,30.15,NE,34,6.9,6.9,62,0.00,CLR,CLR,0.00,WeatherDisplay:10.37,2013-05-23 15:24:00,
2013-05-23 10:29:00,60.3,47.6,30.15,NW,319,5.8,5.8,63,0.00,CLR,CLR,0.00,WeatherDisplay:10.37,2013-05-23 15:29:00,
2013-05-23 10:34:00,60.2,48.0,30.16,NW,325,10.4,10.4,64,0.00,CLR,CLR,0.00,WeatherDisplay:10.37,2013-05-23 15:34:00,
2013-05-23 10:39:00,60.6,47.9,30.16,NNE,29,5.0,5.0,63,0.00,CLR,CLR,0.00,WeatherDisplay:10.37,2013-05-23 15:39:00,
2013-05-23 10:45:00,60.0,46.9,30.16,NE,44,10.4,10.4,62,0.00,CLR,CLR,0.00,WeatherDisplay:10.37,2013-05-23 15:45:00,
2013-05-23 10:49:00,60.6,47.9,30.16,North,351,5.8,5.8,63,0.00,CLR,CLR,0.00,WeatherDisplay:10.37,2013-05-23 15:49:00,
2013-05-23 10:55:00,61.9,47.9,30.16,NW,307,10.4,10.4,60,0.00,CLR,CLR,0.00,WeatherDisplay:10.37,2013-05-23 15:55:00,
2013-05-23 11:00:00,62.5,48.0,30.16,NNW,345,3.5,3.5,59,0.00,CLR,CLR,0.00,WeatherDisplay:10.37,2013-05-23 16:00:00,
2013-05-23 11:05:00,62.6,47.6,30.16,North,5,4.0,4.0,58,0.00,CLR,CLR,0.00,WeatherDisplay:10.37,2013-05-23 16:05:00,
2013-05-23 11:11:00,63.1,48.1,30.16,North,360,12.7,12.7,58,0.00,CLR,CLR,0.00,WeatherDisplay:10.37,2013-05-23 16:11:00,
2013-05-23 11:16:00,62.8,47.8,30.16,NNW,348,11.5,11.5,58,0.00,CLR,CLR,0.00,WeatherDisplay:10.37,2013-05-23 16:16:00,
2013-05-23 11:21:00,63.0,47.5,30.16,NNE,26,10.4,10.4,57,0.00,CLR,CLR,0.00,WeatherDisplay:10.37,2013-05-23 16:21:00,
2013-05-23 11:26:00,63.2,48.2,30.16,North,360,8.1,8.1,58,0.00,CLR,CLR,0.00,WeatherDisplay:10.37,2013-05-23 16:26:00,
2013-05-23 11:31:00,63.7,47.7,30.16,North,5,10.4,10.4,56,0.00,CLR,CLR,0.00,WeatherDisplay:10.37,2013-05-23 16:31:00,
2013-05-23 11:36:00,63.9,48.4,30.15,NNW,345,4.6,4.6,57,0.00,OVC,OVC,0.00,WeatherDisplay:10.37,2013-05-23 16:36:00,
2013-05-23 11:42:00,64.7,48.2,30.15,ENE,64,3.5,3.5,55,0.00,OVC,OVC,0.00,WeatherDisplay:10.37,2013-05-23 16:42:00,
2013-05-23 11:47:00,64.9,48.3,30.16,North,355,10.4,10.4,55,0.00,OVC,OVC,0.00,WeatherDisplay:10.37,2013-05-23 16:47:00,
2013-05-23 11:52:00,65.0,47.9,30.16,East,80,4.6,4.6,54,0.00,OVC,OVC,0.00,WeatherDisplay:10.37,2013-05-23 16:52:00,
2013-05-23 11:57:00,65.3,47.7,30.16,SSE,151,4.0,4.0,53,0.00,OVC,OVC,0.00,WeatherDisplay:10.37,2013-05-23 16:57:00,
2013-05-23 12:03:00,66.5,48.8,30.16,East,81,12.7,12.7,53,0.00,OVC,OVC,0.00,WeatherDisplay:10.37,2013-05-23 17:03:00,
2013-05-23 12:08:00,67.1,47.3,30.16,ENE,66,9.2,9.2,49,0.00,OVC,OVC,0.00,WeatherDisplay:10.37,2013-05-23 17:08:00,
2013-05-23 12:13:00,66.8,46.5,30.16,North,351,4.6,4.6,48,0.00,OVC,OVC,0.00,WeatherDisplay:10.37,2013-05-23 17:13:00,
2013-05-23 12:18:00,67.2,48.5,30.16,NE,55,6.9,6.9,51,0.00,OVC,OVC,0.00,WeatherDisplay:10.37,2013-05-23 17:18:00,
2013-05-23 12:23:00,67.2,47.9,30.16,NNE,27,11.5,11.5,50,0.00,OVC,OVC,0.00,WeatherDisplay:10.37,2013-05-23 17:23:00,
2013-05-23 12:28:00,67.5,48.2,30.15,East,88,10.4,10.4,50,0.00,OVC,OVC,0.00,WeatherDisplay:10.37,2013-05-23 17:28:00,
2013-05-23 12:34:00,67.7,46.2,30.16,NNE,24,11.5,11.5,46,0.00,OVC,OVC,0.00,WeatherDisplay:10.37,2013-05-23 17:34:00,
2013-05-23 12:39:00,67.4,46.5,30.16,NNE,19,4.6,4.6,47,0.00,OVC,OVC,0.00,WeatherDisplay:10.37,2013-05-23 17:39:00,
2013-05-23 12:44:00,67.6,46.6,30.16,NE,46,6.9,6.9,47,0.00,OVC,OVC,0.00,WeatherDisplay:10.37,2013-05-23 17:44:00,
2013-05-23 12:49:00,68.1,47.1,30.16,NW,319,15.0,15.0,47,0.00,OVC,OVC,0.00,WeatherDisplay:10.37,2013-05-23 17:49:00,
2013-05-23 12:54:00,67.4,47.0,30.16,NE,46,3.5,3.5,48,0.00,OVC,OVC,0.00,WeatherDisplay:10.37,2013-05-23 17:54:00,
2013-05-23 12:59:00,67.5,46.6,30.16,East,98,16.1,16.1,47,0.00,OVC,OVC,0.00,WeatherDisplay:10.37,2013-05-23 17:59:00,
2013-05-23 13:05:00,67.5,46.6,30.16,WNW,284,12.7,12.7,47,0.00,OVC,OVC,0.00,WeatherDisplay:10.37,2013-05-23 18:05:00,
2013-05-23 13:10:00,67.9,47.5,30.15,East,100,3.5,3.5,48,0.00,OVC,OVC,0.00,WeatherDisplay:10.37,2013-05-23 18:10:00,
2013-05-23 13:15:00,67.9,47.5,30.15,WNW,296,4.6,4.6,48,0.00,OVC,OVC,0.00,WeatherDisplay:10.37,2013-05-23 18:15:00,
2013-05-23 13:20:00,68.3,47.8,30.16,WNW,294,3.5,3.5,48,0.00,OVC,OVC,0.00,WeatherDisplay:10.37,2013-05-23 18:20:00,
2013-05-23 13:25:00,69.0,46.8,30.16,East,80,3.5,3.5,45,0.00,OVC,OVC,0.00,WeatherDisplay:10.37,2013-05-23 18:25:00,
2013-05-23 13:30:00,69.7,46.2,30.16,East,91,4.6,4.6,43,0.00,OVC,OVC,0.00,WeatherDisplay:10.37,2013-05-23 18:30:00,
2013-05-23 13:36:00,69.4,45.9,30.17,ENE,57,1.2,1.2,43,0.00,OVC,OVC,0.00,WeatherDisplay:10.37,2013-05-23 18:36:00,
2013-05-23 13:41:00,69.5,43.4,30.17,NNW,332,11.5,11.5,39,0.00,OVC,OVC,0.00,WeatherDisplay:10.37,2013-05-23 18:41:00,
2013-05-23 13:46:00,69.5,45.4,30.17,East,86,12.7,12.7,42,0.00,OVC,OVC,0.00,WeatherDisplay:10.37,2013-05-23 18:46:00,
2013-05-23 13:51:00,69.9,44.5,30.17,North,355,7.0,7.0,40,0.00,OVC,OVC,0.00,WeatherDisplay:10.37,2013-05-23 18:51:00,
2013-05-23 13:57:00,69.5,45.4,30.17,ESE,103,3.5,3.5,42,0.00,OVC,OVC,0.00,WeatherDisplay:10.37,2013-05-23 18:57:00,
2013-05-23 14:02:00,69.9,45.8,30.18,NNE,16,3.5,3.5,42,0.00,OVC,OVC,0.00,WeatherDisplay:10.37,2013-05-23 19:02:00,
2013-05-23 14:07:00,70.2,44.1,30.17,NE,35,7.0,7.0,39,0.00,OVC,OVC,0.00,WeatherDisplay:10.37,2013-05-23 19:07:00,
2013-05-23 14:12:00,70.7,45.2,30.17,NE,46,10.4,10.4,40,0.00,OVC,OVC,0.00,WeatherDisplay:10.37,2013-05-23 19:12:00,
2013-05-23 14:18:00,70.6,44.4,30.17,North,355,9.2,9.2,39,0.00,OVC,OVC,0.00,WeatherDisplay:10.37,2013-05-23 19:18:00,
2013-05-23 14:23:00,70.5,44.3,30.17,NE,39,11.5,11.5,39,0.00,OVC,OVC,0.00,WeatherDisplay:10.37,2013-05-23 19:23:00,
2013-05-23 14:28:00,70.8,45.3,30.17,NNE,22,3.5,3.5,40,0.00,OVC,OVC,0.00,WeatherDisplay:10.37,2013-05-23 19:28:00,
2013-05-23 14:33:00,70.1,44.0,30.17,North,5,6.9,6.9,39,0.00,OVC,OVC,0.00,WeatherDisplay:10.37,2013-05-23 19:33:00,
2013-05-23 14:39:00,70.3,44.8,30.17,North,355,5.0,5.0,40,0.00,OVC,OVC,0.00,WeatherDisplay:10.37,2013-05-23 19:39:00,
2013-05-23 14:44:00,70.6,43.1,30.17,NNE,17,11.5,11.5,37,0.00,OVC,OVC,0.00,WeatherDisplay:10.37,2013-05-23 19:44:00,
2013-05-23 14:49:00,70.9,43.3,30.17,ENE,72,1.2,1.2,37,0.00,OVC,OVC,0.00,WeatherDisplay:10.37,2013-05-23 19:49:00,
2013-05-23 14:54:00,70.8,41.8,30.17,NE,41,6.9,6.9,35,0.00,OVC,OVC,0.00,WeatherDisplay:10.37,2013-05-23 19:54:00,
2013-05-23 14:59:00,71.1,42.0,30.17,North,5,10.4,10.4,35,0.00,OVC,OVC,0.00,WeatherDisplay:10.37,2013-05-23 19:59:00,
2013-05-23 15:05:00,71.3,40.7,30.17,NNE,13,11.5,11.5,33,0.00,OVC,OVC,0.00,WeatherDisplay:10.37,2013-05-23 20:05:00,
2013-05-23 15:10:00,71.5,41.6,30.17,North,350,9.2,9.2,34,0.00,OVC,OVC,0.00,WeatherDisplay:10.37,2013-05-23 20:10:00,
2013-05-23 15:15:00,71.6,43.2,30.17,East,84,7.0,7.0,36,0.00,OVC,OVC,0.00,WeatherDisplay:10.37,2013-05-23 20:15:00,
2013-05-23 15:20:00,72.1,42.2,30.17,ENE,59,3.5,3.5,34,0.00,OVC,OVC,0.00,WeatherDisplay:10.37,2013-05-23 20:20:00,
2013-05-23 15:25:00,72.5,40.1,30.17,East,92,10.4,10.4,31,0.00,OVC,OVC,0.00,WeatherDisplay:10.37,2013-05-23 20:25:00,
2013-05-23 15:30:00,72.5,40.1,30.17,SSW,199,8.1,8.1,31,0.00,OVC,OVC,0.00,WeatherDisplay:10.37,2013-05-23 20:30:00,
2013-05-23 15:35:00,72.5,40.1,30.17,NNE,19,6.0,6.0,31,0.00,OVC,OVC,0.00,WeatherDisplay:10.37,2013-05-23 20:35:00,
2013-05-23 15:40:00,72.4,39.2,30.17,ENE,78,9.2,9.2,30,0.00,OVC,OVC,0.00,WeatherDisplay:10.37,2013-05-23 20:40:00,
2013-05-23 15:46:00,72.1,38.9,30.17,NNW,348,7.0,7.0,30,0.00,OVC,OVC,0.00,WeatherDisplay:10.37,2013-05-23 20:46:00,
2013-05-23 15:51:00,72.1,38.1,30.17,NNE,14,4.6,4.6,29,0.00,OVC,OVC,0.00,WeatherDisplay:10.37,2013-05-23 20:51:00,
2013-05-23 15:56:00,72.7,38.6,30.16,NE,46,15.0,15.0,29,0.00,OVC,OVC,0.00,WeatherDisplay:10.37,2013-05-23 20:56:00,
2013-05-23 16:01:00,73.0,38.0,30.17,NNE,13,11.5,11.5,28,0.00,OVC,OVC,0.00,WeatherDisplay:10.37,2013-05-23 21:01:00,
2013-05-23 16:06:00,73.4,39.2,30.17,NE,44,6.0,6.0,29,0.00,OVC,OVC,0.00,WeatherDisplay:10.37,2013-05-23 21:06:00,
2013-05-23 16:12:00,73.3,40.0,30.17,NW,309,4.6,4.6,30,0.00,OVC,OVC,0.00,WeatherDisplay:10.37,2013-05-23 21:12:00,
2013-05-23 16:17:00,73.4,39.2,30.17,NE,45,3.5,3.5,29,0.00,OVC,OVC,0.00,WeatherDisplay:10.37,2013-05-23 21:17:00,
2013-05-23 16:22:00,73.3,38.2,30.17,NNW,334,5.8,5.8,28,0.00,OVC,OVC,0.00,WeatherDisplay:10.37,2013-05-23 21:22:00,
2013-05-23 16:27:00,73.0,38.9,30.17,East,88,11.5,11.5,29,0.00,OVC,OVC,0.00,WeatherDisplay:10.37,2013-05-23 21:27:00,
2013-05-23 16:32:00,72.4,39.2,30.17,North,355,10.0,10.0,30,0.00,OVC,OVC,0.00,WeatherDisplay:10.37,2013-05-23 21:32:00,
2013-05-23 16:37:00,72.1,38.9,30.17,NNE,14,9.2,9.2,30,0.00,OVC,OVC,0.00,WeatherDisplay:10.37,2013-05-23 21:37:00,
2013-05-23 16:43:00,72.3,38.2,30.18,East,98,5.8,5.8,29,0.00,OVC,OVC,0.00,WeatherDisplay:10.37,2013-05-23 21:43:00,
2013-05-23 16:48:00,72.1,38.1,30.18,ENE,71,3.5,3.5,29,0.00,OVC,OVC,0.00,WeatherDisplay:10.37,2013-05-23 21:48:00,
2013-05-23 16:53:00,72.0,37.1,30.18,ENE,67,4.6,4.6,28,0.00,OVC,OVC,0.00,WeatherDisplay:10.37,2013-05-23 21:53:00,
2013-05-23 16:58:00,72.3,35.5,30.18,NNE,26,5.0,5.0,26,0.00,OVC,OVC,0.00,WeatherDisplay:10.37,2013-05-23 21:58:00,
2013-05-23 17:03:00,72.4,37.4,30.18,ENE,67,5.8,5.8,28,0.00,OVC,OVC,0.00,WeatherDisplay:10.37,2013-05-23 22:03:00,
2013-05-23 17:09:00,72.3,39.1,30.18,NE,36,3.5,3.5,30,0.00,OVC,OVC,0.00,WeatherDisplay:10.37,2013-05-23 22:09:00,
2013-05-23 17:14:00,72.9,38.8,30.18,NE,49,1.2,1.2,29,0.00,OVC,OVC,0.00,WeatherDisplay:10.37,2013-05-23 22:14:00,
2013-05-23 17:19:00,73.3,40.0,30.18,ENE,57,0.0,0.0,30,0.00,OVC,OVC,0.00,WeatherDisplay:10.37,2013-05-23 22:19:00,
2013-05-23 17:24:00,73.9,39.6,30.18,NNE,24,1.2,0.0,29,0.00,OVC,OVC,0.00,WeatherDisplay:10.37,2013-05-23 22:24:00,
2013-05-23 17:29:00,73.5,39.3,30.18,NNW,346,9.2,9.2,29,0.00,OVC,OVC,0.00,WeatherDisplay:10.37,2013-05-23 22:29:00,
2013-05-23 17:34:00,72.0,40.5,30.18,NW,306,3.5,3.5,32,0.00,OVC,OVC,0.00,WeatherDisplay:10.37,2013-05-23 22:34:00,
2013-05-23 17:39:00,71.7,38.6,30.18,NNE,25,5.0,5.0,30,0.00,OVC,OVC,0.00,WeatherDisplay:10.37,2013-05-23 22:39:00,
2013-05-23 17:44:00,71.7,39.4,30.19,ENE,69,5.8,5.8,31,0.00,OVC,OVC,0.00,WeatherDisplay:10.37,2013-05-23 22:44:00,
2013-05-23 17:49:00,72.0,38.9,30.18,North,355,4.6,4.6,30,0.00,OVC,OVC,0.00,WeatherDisplay:10.37,2013-05-23 22:49:00,
2013-05-23 17:54:00,72.2,39.0,30.19,WNW,298,6.9,6.9,30,0.00,OVC,OVC,0.00,WeatherDisplay:10.37,2013-05-23 22:54:00,
2013-05-23 18:00:00,71.9,38.8,30.19,NNW,337,8.1,8.1,30,0.00,OVC,OVC,0.00,WeatherDisplay:10.37,2013-05-23 23:00:00,
2013-05-23 18:05:00,71.7,38.6,30.19,East,88,4.6,4.6,30,0.00,OVC,OVC,0.00,WeatherDisplay:10.37,2013-05-23 23:05:00,
2013-05-23 18:10:00,71.8,38.7,30.18,NNE,12,3.5,3.5,30,0.00,OVC,OVC,0.00,WeatherDisplay:10.37,2013-05-23 23:10:00,
2013-05-23 18:15:00,71.9,38.8,30.19,NNE,17,6.9,6.9,30,0.00,OVC,OVC,0.00,WeatherDisplay:10.37,2013-05-23 23:15:00,
2013-05-23 18:20:00,72.0,38.9,30.19,NE,55,3.5,3.5,30,0.00,OVC,OVC,0.00,WeatherDisplay:10.37,2013-05-23 23:20:00,
2013-05-23 18:25:00,71.8,38.7,30.19,NNE,18,5.8,5.8,30,0.00,OVC,OVC,0.00,WeatherDisplay:10.37,2013-05-23 23:25:00,
2013-05-23 18:31:00,72.0,39.7,30.19,NNE,27,0.0,0.0,31,0.00,OVC,OVC,0.00,WeatherDisplay:10.37,2013-05-23 23:31:00,
2013-05-23 18:36:00,71.9,38.8,30.19,NNE,24,2.3,2.3,30,0.00,OVC,OVC,0.00,WeatherDisplay:10.37,2013-05-23 23:36:00,
2013-05-23 18:41:00,71.3,37.4,30.20,NNE,17,3.5,3.5,29,0.00,OVC,OVC,0.00,WeatherDisplay:10.37,2013-05-23 23:41:00,
2013-05-23 18:46:00,70.8,37.8,30.20,NNW,327,6.9,6.9,30,0.00,OVC,OVC,0.00,WeatherDisplay:10.37,2013-05-23 23:46:00,
2013-05-23 18:51:00,70.8,38.7,30.19,NE,41,3.5,3.5,31,0.00,OVC,OVC,0.00,WeatherDisplay:10.37,2013-05-23 23:51:00,
2013-05-23 18:57:00,70.8,39.5,30.20,NE,36,3.5,3.5,32,0.00,OVC,OVC,0.00,WeatherDisplay:10.37,2013-05-23 23:57:00,
2013-05-23 19:02:00,70.1,38.0,30.20,North,350,5.8,5.8,31,0.00,OVC,OVC,0.00,WeatherDisplay:10.37,2013-05-24 00:02:00,
2013-05-23 19:07:00,69.4,39.0,30.20,NNE,15,0.0,0.0,33,0.00,OVC,OVC,0.00,WeatherDisplay:10.37,2013-05-24 00:07:00,
2013-05-23 19:12:00,69.1,38.8,30.20,ENE,57,2.3,2.3,33,0.00,OVC,OVC,0.00,WeatherDisplay:10.37,2013-05-24 00:12:00,
2013-05-23 19:17:00,68.8,38.5,30.20,ENE,59,3.5,3.5,33,0.00,OVC,OVC,0.00,WeatherDisplay:10.37,2013-05-24 00:17:00,
2013-05-23 19:22:00,68.4,38.9,30.20,NNW,342,3.5,3.5,34,0.00,OVC,OVC,0.00,WeatherDisplay:10.37,2013-05-24 00:22:00,
2013-05-23 19:27:00,68.1,38.7,30.20,ENE,62,5.0,5.0,34,0.00,OVC,OVC,0.00,WeatherDisplay:10.37,2013-05-24 00:27:00,
2013-05-23 19:32:00,67.8,38.4,30.20,NE,51,3.5,3.5,34,0.00,OVC,OVC,0.00,WeatherDisplay:10.37,2013-05-24 00:32:00,
2013-05-23 19:38:00,67.5,38.9,30.20,NNW,347,0.0,0.0,35,0.00,OVC,OVC,0.00,WeatherDisplay:10.37,2013-05-24 00:38:00,
2013-05-23 19:43:00,67.2,38.6,30.20,NE,39,2.3,2.3,35,0.00,OVC,OVC,0.00,WeatherDisplay:10.37,2013-05-24 00:43:00,
2013-05-23 19:48:00,67.0,39.1,30.20,NE,36,0.0,0.0,36,0.00,OVC,OVC,0.00,WeatherDisplay:10.37,2013-05-24 00:48:00,
2013-05-23 19:53:00,66.7,38.9,30.20,NE,36,3.5,3.5,36,0.00,OVC,OVC,0.00,WeatherDisplay:10.37,2013-05-24 00:53:00,
2013-05-23 19:59:00,66.5,38.7,30.21,NE,35,3.0,3.0,36,0.00,OVC,OVC,0.00,WeatherDisplay:10.37,2013-05-24 00:59:00,
2013-05-23 20:04:00,66.4,39.3,30.21,NE,35,3.5,3.5,37,0.00,OVC,OVC,0.00,WeatherDisplay:10.37,2013-05-24 01:04:00,
2013-05-23 20:09:00,66.1,39.1,30.21,NE,38,3.5,3.5,37,0.00,OVC,OVC,0.00,WeatherDisplay:10.37,2013-05-24 01:09:00,
2013-05-23 20:14:00,65.7,38.7,30.21,NNE,30,3.5,3.5,37,0.00,OVC,OVC,0.00,WeatherDisplay:10.37,2013-05-24 01:14:00,
2013-05-23 20:19:00,65.3,39.0,30.21,NNE,30,1.2,1.2,38,0.00,OVC,OVC,0.00,WeatherDisplay:10.37,2013-05-24 01:19:00,
2013-05-23 20:24:00,64.9,39.3,30.21,NNE,30,1.2,1.2,39,0.00,OVC,OVC,0.00,WeatherDisplay:10.37,2013-05-24 01:24:00,
2013-05-23 20:30:00,64.5,39.6,30.21,NNE,30,0.0,0.0,40,0.00,OVC,OVC,0.00,WeatherDisplay:10.37,2013-05-24 01:30:00,
2013-05-23 20:35:00,64.1,39.9,30.22,NNE,30,0.0,0.0,41,0.00,OVC,OVC,0.00,WeatherDisplay:10.37,2013-05-24 01:35:00,
2013-05-23 20:40:00,63.6,40.1,30.22,NNE,30,0.0,0.0,42,0.00,OVC,OVC,0.00,WeatherDisplay:10.37,2013-05-24 01:40:00,
2013-05-23 20:45:00,63.2,40.3,30.22,NNE,30,0.0,0.0,43,0.00,OVC,OVC,0.00,WeatherDisplay:10.37,2013-05-24 01:45:00,
2013-05-23 20:50:00,62.7,40.5,30.22,NNE,30,0.0,0.0,44,0.00,OVC,OVC,0.00,WeatherDisplay:10.37,2013-05-24 01:50:00,
2013-05-23 20:56:00,62.0,40.4,30.22,NNE,30,0.0,0.0,45,0.00,OVC,OVC,0.00,WeatherDisplay:10.37,2013-05-24 01:56:00,
2013-05-23 21:01:00,61.4,41.0,30.22,NNE,30,0.0,0.0,47,0.00,OVC,OVC,0.00,WeatherDisplay:10.37,2013-05-24 02:01:00,
2013-05-23 21:06:00,60.9,41.1,30.22,NNE,30,0.0,0.0,48,0.00,OVC,OVC,0.00,WeatherDisplay:10.37,2013-05-24 02:06:00,
2013-05-23 21:11:00,60.4,41.1,30.23,NNE,30,0.0,0.0,49,0.00,OVC,OVC,0.00,WeatherDisplay:10.37,2013-05-24 02:11:00,
2013-05-23 21:16:00,59.9,41.2,30.23,NNE,30,0.0,0.0,50,0.00,OVC,OVC,0.00,WeatherDisplay:10.37,2013-05-24 02:16:00,
2013-05-23 21:21:00,59.5,41.3,30.23,NNE,30,0.0,0.0,51,0.00,OVC,OVC,0.00,WeatherDisplay:10.37,2013-05-24 02:21:00,
2013-05-23 21:26:00,59.1,41.0,30.23,NNE,30,0.0,0.0,51,0.00,OVC,OVC,0.00,WeatherDisplay:10.37,2013-05-24 02:26:00,
2013-05-23 21:31:00,59.0,41.4,30.23,NNE,30,0.0,0.0,52,0.00,OVC,OVC,0.00,WeatherDisplay:10.37,2013-05-24 02:31:00,
2013-05-23 21:37:00,58.8,41.2,30.23,NNE,30,1.0,1.0,52,0.00,OVC,OVC,0.00,WeatherDisplay:10.37,2013-05-24 02:37:00,
2013-05-23 21:42:00,58.5,40.9,30.23,NNE,30,1.2,1.2,52,0.00,OVC,OVC,0.00,WeatherDisplay:10.37,2013-05-24 02:42:00,
2013-05-23 21:47:00,58.2,41.1,30.23,NNE,30,0.0,0.0,53,0.00,OVC,OVC,0.00,WeatherDisplay:10.37,2013-05-24 02:47:00,
2013-05-23 21:52:00,58.0,41.0,30.23,NNE,30,0.0,0.0,53,0.00,OVC,OVC,0.00,WeatherDisplay:10.37,2013-05-24 02:52:00,
2013-05-23 21:57:00,57.7,40.7,30.23,NNE,30,0.0,0.0,53,0.00,OVC,OVC,0.00,WeatherDisplay:10.37,2013-05-24 02:57:00,
2013-05-23 22:03:00,57.5,40.5,30.23,NNE,30,0.0,0.3,53,0.00,OVC,OVC,0.00,WeatherDisplay:10.37,2013-05-24 03:03:00,
2013-05-23 22:08:00,57.4,40.9,30.24,NNE,30,0.0,0.0,54,0.00,OVC,OVC,0.00,WeatherDisplay:10.37,2013-05-24 03:08:00,
2013-05-23 22:13:00,57.4,40.4,30.24,NNE,30,2.3,2.3,53,0.00,OVC,OVC,0.00,WeatherDisplay:10.37,2013-05-24 03:13:00,
2013-05-23 22:18:00,57.5,40.5,30.24,NNE,30,0.0,0.0,53,0.00,OVC,OVC,0.00,WeatherDisplay:10.37,2013-05-24 03:18:00,
2013-05-23 22:23:00,57.4,40.4,30.25,NNE,30,1.2,1.2,53,0.00,OVC,OVC,0.00,WeatherDisplay:10.37,2013-05-24 03:23:00,
2013-05-23 22:28:00,57.3,40.3,30.25,NNE,30,0.0,0.0,53,0.00,OVC,OVC,0.00,WeatherDisplay:10.37,2013-05-24 03:28:00,
2013-05-23 22:33:00,57.1,40.1,30.25,NNE,30,0.0,0.0,53,0.00,CLR,CLR,0.00,WeatherDisplay:10.37,2013-05-24 03:33:00,
2013-05-23 22:39:00,56.8,40.3,30.25,NNE,30,0.0,0.0,54,0.00,CLR,CLR,0.00,WeatherDisplay:10.37,2013-05-24 03:39:00,
2013-05-23 22:44:00,56.6,40.1,30.25,NNE,30,0.0,0.0,54,0.00,CLR,CLR,0.00,WeatherDisplay:10.37,2013-05-24 03:44:00,
2013-05-23 22:49:00,56.4,40.4,30.25,NNE,30,0.0,0.0,55,0.00,CLR,CLR,0.00,WeatherDisplay:10.37,2013-05-24 03:49:00,
2013-05-23 22:54:00,56.1,40.1,30.25,NNE,30,0.0,0.0,55,0.00,CLR,CLR,0.00,WeatherDisplay:10.37,2013-05-24 03:54:00,
2013-05-23 23:00:00,55.8,39.9,30.25,NNE,30,1.2,0.0,55,0.00,CLR,CLR,0.00,WeatherDisplay:10.37,2013-05-24 04:00:00,
2013-05-23 23:01:00,55.8,39.9,30.25,NNE,30,2.3,2.3,55,0.00,CLR,CLR,0.00,WeatherDisplay:10.37,2013-05-24 04:01:00,
2013-05-23 23:02:00,55.8,39.9,30.25,NNE,30,2.3,2.3,55,0.00,CLR,CLR,0.00,WeatherDisplay:10.37,2013-05-24 04:02:00,
2013-05-23 23:03:00,55.8,39.9,30.25,NNE,30,0.0,0.0,55,0.00,CLR,CLR,0.00,WeatherDisplay:10.37,2013-05-24 04:03:00,
2013-05-23 23:04:00,55.7,39.8,30.25,NNE,30,0.0,0.0,55,0.00,CLR,CLR,0.00,WeatherDisplay:10.37,2013-05-24 04:04:00,
2013-05-23 23:09:00,55.6,39.7,30.26,NNE,32,0.0,0.0,55,0.00,CLR,CLR,0.00,WeatherDisplay:10.37,2013-05-24 04:09:00,
2013-05-23 23:15:00,55.5,39.6,30.26,NNE,32,1.2,0.0,55,0.00,CLR,CLR,0.00,WeatherDisplay:10.37,2013-05-24 04:15:00,
2013-05-23 23:20:00,55.5,39.6,30.26,NNE,32,0.0,0.0,55,0.00,CLR,CLR,0.00,WeatherDisplay:10.37,2013-05-24 04:20:00,
2013-05-23 23:25:00,55.4,39.5,30.26,NNE,32,1.0,1.0,55,0.00,CLR,CLR,0.00,WeatherDisplay:10.37,2013-05-24 04:25:00,
2013-05-23 23:30:00,55.4,39.5,30.26,NNE,32,0.0,0.0,55,0.00,CLR,CLR,0.00,WeatherDisplay:10.37,2013-05-24 04:30:00,
2013-05-23 23:35:00,55.3,39.4,30.26,NNE,32,1.2,0.0,55,0.00,CLR,CLR,0.00,WeatherDisplay:10.37,2013-05-24 04:35:00,
2013-05-23 23:36:00,55.3,39.4,30.26,NNE,32,1.2,0.0,55,0.00,CLR,CLR,0.00,WeatherDisplay:10.37,2013-05-24 04:36:00,
2013-05-23 23:42:00,55.3,39.4,30.26,NNE,32,1.2,0.0,55,0.00,CLR,CLR,0.00,WeatherDisplay:10.37,2013-05-24 04:42:00,